createdAt,value
2023-12-10T00:00:12.997Z,10.20
2023-12-10T00:01:13.073Z,10.20
2023-12-10T00:02:12.986Z,10.70
2023-12-10T00:03:13.026Z,11.00
2023-12-10T00:04:12.972Z,10.30
2023-12-10T00:05:12.874Z,10.10
2023-12-10T00:06:14.581Z,9.30
2023-12-10T00:07:12.861Z,10.50
2023-12-10T00:08:12.857Z,9.60
2023-12-10T00:09:12.831Z,9.70
2023-12-10T00:10:12.828Z,9.70
2023-12-10T00:11:12.840Z,8.90
2023-12-10T00:12:12.803Z,9.20
2023-12-10T00:13:12.811Z,11.00
2023-12-10T00:14:12.813Z,10.00
2023-12-10T00:15:12.828Z,8.20
2023-12-10T00:16:12.728Z,9.20
2023-12-10T00:17:12.700Z,9.30
2023-12-10T00:18:12.817Z,11.20
2023-12-10T00:19:12.849Z,9.60
2023-12-10T00:20:12.675Z,11.30
2023-12-10T00:21:12.671Z,9.80
2023-12-10T00:22:12.655Z,10.80
2023-12-10T00:23:12.636Z,10.50
2023-12-10T00:24:12.677Z,10.30
2023-12-10T00:25:12.615Z,10.10
2023-12-10T00:26:12.585Z,10.20
2023-12-10T00:27:12.694Z,10.60
2023-12-10T00:28:12.557Z,10.20
2023-12-10T00:29:12.841Z,8.70
2023-12-10T00:30:12.570Z,10.90
2023-12-10T00:31:12.538Z,8.20
2023-12-10T00:32:12.508Z,10.10
2023-12-10T00:33:12.596Z,9.40
2023-12-10T00:34:12.630Z,9.80
2023-12-10T00:35:12.481Z,10.60
2023-12-10T00:36:12.488Z,10.20
2023-12-10T00:37:12.535Z,9.20
2023-12-10T00:38:12.431Z,10.50
2023-12-10T00:39:12.450Z,10.20
2023-12-10T00:40:12.424Z,11.00
2023-12-10T00:41:12.472Z,8.50
2023-12-10T00:42:12.448Z,9.70
2023-12-10T00:43:12.372Z,10.10
2023-12-10T00:44:12.386Z,10.50
2023-12-10T00:45:12.382Z,11.10
2023-12-10T00:46:12.346Z,10.00
2023-12-10T00:47:12.322Z,8.90
2023-12-10T00:48:12.392Z,7.30
2023-12-10T00:49:12.392Z,9.50
2023-12-10T00:50:12.291Z,9.50
2023-12-10T00:51:12.321Z,10.70
2023-12-10T00:52:12.286Z,9.90
2023-12-10T00:53:12.247Z,9.40
2023-12-10T00:54:13.531Z,9.70
2023-12-10T00:55:12.219Z,10.70
2023-12-10T00:56:12.197Z,9.20
2023-12-10T00:57:12.234Z,9.70
2023-12-10T00:58:12.200Z,9.10
2023-12-10T00:59:12.171Z,9.30
2023-12-10T01:00:13.800Z,8.70
2023-12-10T01:01:12.250Z,9.40
2023-12-10T01:02:12.106Z,8.90
2023-12-10T01:03:12.234Z,9.10
2023-12-10T01:04:12.259Z,8.90
2023-12-10T01:05:12.130Z,8.90
2023-12-10T01:06:12.123Z,10.30
2023-12-10T01:07:12.073Z,8.90
2023-12-10T01:08:12.082Z,10.00
2023-12-10T01:09:12.114Z,10.40
2023-12-10T01:10:12.043Z,9.40
2023-12-10T01:11:12.029Z,9.50
2023-12-10T01:12:12.029Z,9.60
2023-12-10T01:13:12.020Z,9.90
2023-12-10T01:14:11.953Z,10.00
2023-12-10T01:15:11.990Z,9.30
2023-12-10T01:16:11.926Z,9.90
2023-12-10T01:17:11.991Z,11.50
2023-12-10T01:18:12.111Z,10.00
2023-12-10T01:19:12.027Z,10.30
2023-12-10T01:20:11.909Z,10.60
2023-12-10T01:21:11.936Z,10.80
2023-12-10T01:22:11.864Z,10.50
2023-12-10T01:23:11.919Z,10.70
2023-12-10T01:24:11.913Z,9.50
2023-12-10T01:25:11.860Z,10.90
2023-12-10T01:26:11.864Z,11.50
2023-12-10T01:27:11.948Z,11.70
2023-12-10T01:28:11.783Z,11.90
2023-12-10T01:29:11.819Z,12.20
2023-12-10T01:30:12.747Z,11.20
2023-12-10T01:31:11.768Z,11.50
2023-12-10T01:32:11.780Z,10.70
2023-12-10T01:33:12.001Z,11.40
2023-12-10T01:34:11.897Z,9.60
2023-12-10T01:35:11.847Z,11.60
2023-12-10T01:36:11.757Z,10.60
2023-12-10T01:37:11.678Z,11.00
2023-12-10T01:38:11.647Z,10.80
2023-12-10T01:39:11.718Z,10.60
2023-12-10T01:40:11.679Z,9.80
2023-12-10T01:41:13.574Z,10.30
2023-12-10T01:42:11.614Z,11.20
2023-12-10T01:43:11.619Z,11.50
2023-12-10T01:44:11.621Z,10.80
2023-12-10T01:45:11.588Z,11.60
2023-12-10T01:46:11.577Z,10.80
2023-12-10T01:47:11.613Z,11.00
2023-12-10T01:48:11.679Z,12.60
2023-12-10T01:49:11.588Z,11.30
2023-12-10T01:50:11.509Z,11.40
2023-12-10T01:51:11.533Z,11.90
2023-12-10T01:52:11.470Z,11.20
2023-12-10T01:53:11.459Z,11.90
2023-12-10T01:54:11.469Z,10.70
2023-12-10T01:55:11.452Z,11.00
2023-12-10T01:56:12.130Z,10.90
2023-12-10T01:57:11.430Z,9.90
2023-12-10T01:58:11.381Z,11.50
2023-12-10T01:59:11.382Z,11.30
2023-12-10T02:00:11.482Z,11.40
2023-12-10T02:01:11.450Z,10.90
2023-12-10T02:02:11.357Z,11.20
2023-12-10T02:03:11.351Z,11.40
2023-12-10T02:04:11.442Z,11.40
2023-12-10T02:05:11.512Z,10.40
2023-12-10T02:06:11.357Z,11.90
2023-12-10T02:07:11.285Z,11.20
2023-12-10T02:08:11.312Z,12.00
2023-12-10T02:09:11.295Z,12.10
2023-12-10T02:10:11.227Z,10.80
2023-12-10T02:11:11.235Z,11.20
2023-12-10T02:12:11.273Z,11.10
2023-12-10T02:13:11.208Z,12.00
2023-12-10T02:14:11.239Z,11.00
2023-12-10T02:15:11.186Z,12.60
2023-12-10T02:16:11.166Z,12.20
2023-12-10T02:17:11.157Z,11.50
2023-12-10T02:18:11.289Z,11.50
2023-12-10T02:19:11.216Z,11.70
2023-12-10T02:20:11.130Z,11.90
2023-12-10T02:21:11.144Z,11.20
2023-12-10T02:22:11.086Z,10.30
2023-12-10T02:23:11.088Z,12.20
2023-12-10T02:24:11.110Z,11.40
2023-12-10T02:25:11.043Z,11.80
2023-12-10T02:26:11.018Z,11.50
2023-12-10T02:27:11.092Z,11.30
2023-12-10T02:28:11.004Z,11.20
2023-12-10T02:29:11.052Z,12.00
2023-12-10T02:30:11.074Z,11.40
2023-12-10T02:31:10.979Z,12.00
2023-12-10T02:32:10.971Z,11.50
2023-12-10T02:33:11.140Z,11.40
2023-12-10T02:34:11.096Z,11.80
2023-12-10T02:35:10.921Z,10.50
2023-12-10T02:36:10.958Z,11.00
2023-12-10T02:37:10.926Z,10.90
2023-12-10T02:38:10.876Z,11.10
2023-12-10T02:39:10.983Z,11.10
2023-12-10T02:40:10.858Z,11.80
2023-12-10T02:41:10.856Z,12.00
2023-12-10T02:42:10.855Z,12.30
2023-12-10T02:43:10.842Z,11.40
2023-12-10T02:44:10.802Z,11.80
2023-12-10T02:45:10.919Z,11.90
2023-12-10T02:46:10.801Z,11.40
2023-12-10T02:47:10.828Z,11.00
2023-12-10T02:48:11.039Z,11.20
2023-12-10T02:49:10.897Z,10.80
2023-12-10T02:50:10.738Z,10.50
2023-12-10T02:51:10.773Z,10.70
2023-12-10T02:52:10.707Z,10.60
2023-12-10T02:53:10.710Z,11.80
2023-12-10T02:54:10.847Z,12.50
2023-12-10T02:55:10.951Z,14.40
2023-12-10T02:56:10.648Z,14.10
2023-12-10T02:57:10.834Z,15.00
2023-12-10T02:58:10.606Z,15.20
2023-12-10T02:59:10.643Z,19.50
2023-12-10T03:00:10.598Z,15.70
2023-12-10T03:01:10.877Z,14.10
2023-12-10T03:02:10.615Z,14.40
2023-12-10T03:03:10.627Z,14.70
2023-12-10T03:04:10.651Z,11.60
2023-12-10T03:05:10.662Z,13.80
2023-12-10T03:06:10.599Z,14.50
2023-12-10T03:07:10.628Z,13.90
2023-12-10T03:08:10.509Z,13.80
2023-12-10T03:09:10.584Z,15.40
2023-12-10T03:10:10.605Z,14.70
2023-12-10T03:11:10.562Z,13.30
2023-12-10T03:12:10.447Z,14.40
2023-12-10T03:13:10.629Z,14.80
2023-12-10T03:14:13.562Z,12.90
2023-12-10T03:15:10.408Z,14.90
2023-12-10T03:16:10.406Z,14.90
2023-12-10T03:17:10.399Z,14.90
2023-12-10T03:18:10.551Z,15.50
2023-12-10T03:19:10.586Z,15.30
2023-12-10T03:20:10.442Z,14.50
2023-12-10T03:21:10.448Z,14.00
2023-12-10T03:22:10.553Z,14.10
2023-12-10T03:23:10.511Z,14.50
2023-12-10T03:24:10.496Z,14.80
2023-12-10T03:25:10.472Z,13.90
2023-12-10T03:26:10.270Z,14.90
2023-12-10T03:27:10.259Z,15.10
2023-12-10T03:28:10.385Z,14.70
2023-12-10T03:29:10.246Z,14.60
2023-12-10T03:30:10.198Z,14.70
2023-12-10T03:31:10.225Z,15.50
2023-12-10T03:32:10.155Z,15.40
2023-12-10T03:33:10.278Z,16.00
2023-12-10T03:34:10.224Z,15.20
2023-12-10T03:35:10.133Z,15.10
2023-12-10T03:36:10.117Z,15.50
2023-12-10T03:37:10.119Z,15.30
2023-12-10T03:38:10.102Z,15.80
2023-12-10T03:39:10.096Z,15.70
2023-12-10T03:40:10.103Z,15.20
2023-12-10T03:41:10.069Z,15.00
2023-12-10T03:42:10.057Z,14.80
2023-12-10T03:43:10.078Z,14.70
2023-12-10T03:44:10.017Z,15.10
2023-12-10T03:45:10.021Z,14.40
2023-12-10T03:46:10.001Z,13.80
2023-12-10T03:47:10.114Z,15.00
2023-12-10T03:48:10.128Z,14.90
2023-12-10T03:49:10.269Z,15.30
2023-12-10T03:50:10.163Z,13.00
2023-12-10T03:51:10.328Z,15.20
2023-12-10T03:52:10.497Z,15.10
2023-12-10T03:53:10.313Z,16.20
2023-12-10T03:54:10.288Z,14.90
2023-12-10T03:55:10.122Z,15.20
2023-12-10T03:56:10.206Z,16.60
2023-12-10T03:57:09.867Z,16.80
2023-12-10T03:58:09.914Z,15.50
2023-12-10T03:59:09.860Z,16.80
2023-12-10T04:00:09.810Z,17.40
2023-12-10T04:01:09.988Z,18.20
2023-12-10T04:02:09.771Z,18.70
2023-12-10T04:03:09.858Z,17.40
2023-12-10T04:04:10.231Z,18.30
2023-12-10T04:05:09.769Z,17.50
2023-12-10T04:06:09.727Z,19.60
2023-12-10T04:07:09.725Z,19.30
2023-12-10T04:08:09.711Z,18.20
2023-12-10T04:09:09.737Z,18.00
2023-12-10T04:10:09.727Z,18.70
2023-12-10T04:11:09.738Z,17.50
2023-12-10T04:12:09.681Z,17.10
2023-12-10T04:13:09.653Z,16.60
2023-12-10T04:14:09.670Z,15.30
2023-12-10T04:15:09.657Z,16.20
2023-12-10T04:16:09.636Z,20.60
2023-12-10T04:17:09.618Z,18.80
2023-12-10T04:18:09.687Z,16.80
2023-12-10T04:19:09.794Z,16.50
2023-12-10T04:20:09.628Z,16.70
2023-12-10T04:21:09.552Z,21.30
2023-12-10T04:22:09.644Z,19.10
2023-12-10T04:23:09.596Z,18.20
2023-12-10T04:24:09.554Z,16.40
2023-12-10T04:25:09.558Z,16.20
2023-12-10T04:26:09.549Z,15.20
2023-12-10T04:27:09.526Z,15.10
2023-12-10T04:28:09.486Z,16.60
2023-12-10T04:29:09.615Z,16.30
2023-12-10T04:30:09.423Z,16.00
2023-12-10T04:31:09.491Z,16.80
2023-12-10T04:32:09.477Z,16.20
2023-12-10T04:33:09.510Z,18.60
2023-12-10T04:34:09.495Z,17.50
2023-12-10T04:35:09.444Z,15.80
2023-12-10T04:36:09.365Z,16.90
2023-12-10T04:37:09.338Z,17.30
2023-12-10T04:38:09.320Z,18.20
2023-12-10T04:39:09.340Z,19.00
2023-12-10T04:40:09.323Z,17.60
2023-12-10T04:41:09.299Z,19.00
2023-12-10T04:42:09.276Z,16.50
2023-12-10T04:43:09.256Z,16.50
2023-12-10T04:44:09.255Z,18.00
2023-12-10T04:45:09.264Z,16.60
2023-12-10T04:46:09.236Z,18.10
2023-12-10T04:47:09.189Z,18.30
2023-12-10T04:48:09.294Z,30.10
2023-12-10T04:49:09.301Z,20.90
2023-12-10T04:50:09.207Z,27.00
2023-12-10T04:51:09.178Z,30.90
2023-12-10T04:52:09.156Z,37.20
2023-12-10T04:53:09.128Z,19.90
2023-12-10T04:54:09.121Z,23.20
2023-12-10T04:55:09.118Z,20.90
2023-12-10T04:56:09.101Z,22.10
2023-12-10T04:57:09.083Z,24.60
2023-12-10T04:58:09.089Z,21.30
2023-12-10T04:59:09.041Z,23.70
2023-12-10T05:00:09.030Z,20.60
2023-12-10T05:01:09.081Z,20.30
2023-12-10T05:02:09.058Z,22.20
2023-12-10T05:03:09.070Z,20.30
2023-12-10T05:04:09.058Z,19.40
2023-12-10T05:05:08.951Z,21.60
2023-12-10T05:06:09.047Z,20.50
2023-12-10T05:07:08.938Z,21.00
2023-12-10T05:08:08.971Z,22.20
2023-12-10T05:09:09.059Z,20.20
2023-12-10T05:10:08.927Z,20.40
2023-12-10T05:11:08.899Z,21.30
2023-12-10T05:12:08.925Z,21.80
2023-12-10T05:13:08.897Z,23.00
2023-12-10T05:14:08.944Z,19.90
2023-12-10T05:15:08.844Z,20.60
2023-12-10T05:16:08.835Z,21.60
2023-12-10T05:17:08.875Z,21.10
2023-12-10T05:18:08.913Z,18.60
2023-12-10T05:19:08.945Z,20.70
2023-12-10T05:20:08.821Z,19.80
2023-12-10T05:21:08.795Z,18.10
2023-12-10T05:22:08.858Z,20.60
2023-12-10T05:23:08.746Z,21.20
2023-12-10T05:24:08.799Z,17.40
2023-12-10T05:25:08.700Z,21.50
2023-12-10T05:26:09.290Z,18.30
2023-12-10T05:27:08.690Z,17.40
2023-12-10T05:28:08.689Z,18.60
2023-12-10T05:29:08.661Z,19.70
2023-12-10T05:30:08.650Z,19.90
2023-12-10T05:31:08.706Z,18.40
2023-12-10T05:32:08.713Z,17.30
2023-12-10T05:33:08.694Z,17.30
2023-12-10T05:34:08.677Z,16.90
2023-12-10T05:35:08.597Z,17.30
2023-12-10T05:36:08.581Z,18.10
2023-12-10T05:37:08.545Z,17.20
2023-12-10T05:38:08.618Z,17.00
2023-12-10T05:39:08.576Z,16.80
2023-12-10T05:40:09.134Z,17.00
2023-12-10T05:41:08.525Z,18.50
2023-12-10T05:42:08.522Z,14.90
2023-12-10T05:43:08.555Z,18.10
2023-12-10T05:44:08.525Z,17.70
2023-12-10T05:45:08.590Z,15.60
2023-12-10T05:46:08.745Z,18.80
2023-12-10T05:47:08.417Z,17.10
2023-12-10T05:48:08.475Z,17.30
2023-12-10T05:49:08.536Z,17.80
2023-12-10T05:50:08.649Z,17.40
2023-12-10T05:51:08.456Z,15.70
2023-12-10T05:52:08.376Z,17.30
2023-12-10T05:53:08.381Z,18.00
2023-12-10T05:54:08.371Z,17.40
2023-12-10T05:55:08.433Z,16.40
2023-12-10T05:56:08.340Z,18.20
2023-12-10T05:57:08.359Z,16.90
2023-12-10T05:58:08.317Z,16.00
2023-12-10T05:59:08.278Z,18.30
2023-12-10T06:00:08.275Z,17.70
2023-12-10T06:01:08.323Z,18.70
2023-12-10T06:02:08.310Z,18.50
2023-12-10T06:03:08.228Z,17.30
2023-12-10T06:04:08.303Z,17.50
2023-12-10T06:05:11.539Z,17.30
2023-12-10T06:06:08.372Z,18.20
2023-12-10T06:07:08.236Z,16.70
2023-12-10T06:08:08.168Z,15.10
2023-12-10T06:09:08.186Z,17.70
2023-12-10T06:10:08.238Z,16.30
2023-12-10T06:11:08.129Z,15.70
2023-12-10T06:12:08.168Z,15.40
2023-12-10T06:13:08.101Z,16.80
2023-12-10T06:14:08.086Z,18.00
2023-12-10T06:15:08.096Z,20.80
2023-12-10T06:16:08.043Z,17.10
2023-12-10T06:17:08.048Z,16.10
2023-12-10T06:18:08.096Z,18.10
2023-12-10T06:19:08.121Z,16.80
2023-12-10T06:20:08.022Z,18.30
2023-12-10T06:21:07.987Z,21.30
2023-12-10T06:22:07.977Z,19.20
2023-12-10T06:23:07.961Z,18.60
2023-12-10T06:24:07.972Z,26.10
2023-12-10T06:25:07.990Z,20.60
2023-12-10T06:26:07.934Z,24.30
2023-12-10T06:27:07.920Z,24.30
2023-12-10T06:28:07.918Z,23.60
2023-12-10T06:29:07.878Z,30.90
2023-12-10T06:30:07.894Z,30.30
2023-12-10T06:31:07.882Z,25.80
2023-12-10T06:32:07.847Z,23.30
2023-12-10T06:33:07.931Z,25.50
2023-12-10T06:34:07.961Z,25.20
2023-12-10T06:35:07.798Z,22.10
2023-12-10T06:36:07.824Z,22.40
2023-12-10T06:37:07.791Z,26.10
2023-12-10T06:38:07.795Z,23.00
2023-12-10T06:39:07.774Z,24.70
2023-12-10T06:40:07.749Z,25.80
2023-12-10T06:41:07.760Z,25.40
2023-12-10T06:42:07.757Z,22.80
2023-12-10T06:43:07.837Z,22.20
2023-12-10T06:44:07.698Z,22.20
2023-12-10T06:45:07.699Z,25.60
2023-12-10T06:46:07.691Z,24.40
2023-12-10T06:47:07.651Z,24.70
2023-12-10T06:48:07.816Z,22.60
2023-12-10T06:49:07.720Z,25.30
2023-12-10T06:50:07.621Z,25.60
2023-12-10T06:51:07.625Z,27.50
2023-12-10T06:52:07.618Z,22.60
2023-12-10T06:53:07.597Z,24.80
2023-12-10T06:54:07.624Z,21.50
2023-12-10T06:55:07.580Z,23.50
2023-12-10T06:56:07.554Z,24.40
2023-12-10T06:57:07.531Z,21.60
2023-12-10T06:58:07.582Z,21.00
2023-12-10T06:59:07.517Z,21.40
2023-12-10T07:00:07.690Z,22.40
2023-12-10T07:01:07.561Z,20.20
2023-12-10T07:02:07.529Z,22.40
2023-12-10T07:03:07.506Z,20.10
2023-12-10T07:04:07.641Z,21.50
2023-12-10T07:05:07.467Z,22.60
2023-12-10T07:06:07.452Z,20.80
2023-12-10T07:07:07.455Z,19.60
2023-12-10T07:08:07.466Z,20.90
2023-12-10T07:09:07.380Z,20.30
2023-12-10T07:10:07.462Z,18.10
2023-12-10T07:11:07.414Z,19.20
2023-12-10T07:12:07.422Z,19.70
2023-12-10T07:13:07.328Z,16.70
2023-12-10T07:14:07.312Z,17.70
2023-12-10T07:15:07.335Z,19.20
2023-12-10T07:16:07.381Z,20.00
2023-12-10T07:17:07.316Z,21.70
2023-12-10T07:18:07.482Z,18.20
2023-12-10T07:19:07.422Z,17.20
2023-12-10T07:20:07.353Z,17.50
2023-12-10T07:21:07.267Z,17.90
2023-12-10T07:22:07.256Z,18.20
2023-12-10T07:23:07.229Z,18.50
2023-12-10T07:24:07.355Z,17.30
2023-12-10T07:25:07.196Z,18.20
2023-12-10T07:26:07.177Z,17.80
2023-12-10T07:27:07.151Z,18.90
2023-12-10T07:28:07.135Z,17.30
2023-12-10T07:29:07.124Z,18.40
2023-12-10T07:30:07.223Z,18.50
2023-12-10T07:31:07.098Z,19.60
2023-12-10T07:32:07.088Z,17.70
2023-12-10T07:33:07.173Z,19.50
2023-12-10T07:34:07.194Z,19.40
2023-12-10T07:35:07.088Z,18.90
2023-12-10T07:36:07.026Z,19.70
2023-12-10T07:37:07.059Z,20.90
2023-12-10T07:38:07.007Z,19.20
2023-12-10T07:39:07.006Z,20.80
2023-12-10T07:40:06.983Z,19.80
2023-12-10T07:41:07.055Z,18.30
2023-12-10T07:42:06.975Z,20.90
2023-12-10T07:43:07.062Z,20.80
2023-12-10T07:44:06.953Z,20.70
2023-12-10T07:45:06.895Z,22.30
2023-12-10T07:46:06.977Z,21.70
2023-12-10T07:47:09.374Z,19.10
2023-12-10T07:48:06.949Z,20.10
2023-12-10T07:49:06.936Z,19.30
2023-12-10T07:50:06.884Z,18.90
2023-12-10T07:51:06.852Z,48.30
2023-12-10T07:52:06.825Z,80.40
2023-12-10T07:53:06.842Z,63.20
2023-12-10T07:54:06.805Z,21.50
2023-12-10T07:55:06.789Z,25.00
2023-12-10T07:56:06.808Z,23.10
2023-12-10T07:57:06.775Z,24.70
2023-12-10T07:58:06.888Z,29.70
2023-12-10T07:59:06.764Z,29.30
2023-12-10T08:00:06.943Z,29.20
2023-12-10T08:01:06.748Z,28.10
2023-12-10T08:02:06.743Z,25.60
2023-12-10T08:03:06.726Z,24.00
2023-12-10T08:04:06.737Z,29.20
2023-12-10T08:05:06.724Z,29.40
2023-12-10T08:06:06.679Z,25.30
2023-12-10T08:07:06.636Z,31.20
2023-12-10T08:08:06.632Z,44.20
2023-12-10T08:09:06.592Z,60.50
2023-12-10T08:10:06.655Z,52.70
2023-12-10T08:11:06.606Z,37.10
2023-12-10T08:12:06.560Z,32.30
2023-12-10T08:13:06.567Z,30.90
2023-12-10T08:14:06.561Z,27.60
2023-12-10T08:15:06.583Z,25.90
2023-12-10T08:16:06.556Z,26.10
2023-12-10T08:17:06.609Z,27.00
2023-12-10T08:18:06.646Z,22.80
2023-12-10T08:19:06.613Z,21.80
2023-12-10T08:20:06.511Z,24.90
2023-12-10T08:21:06.470Z,30.40
2023-12-10T08:22:06.489Z,28.70
2023-12-10T08:23:06.424Z,26.80
2023-12-10T08:24:06.418Z,30.20
2023-12-10T08:25:06.431Z,27.20
2023-12-10T08:26:06.377Z,31.30
2023-12-10T08:27:06.416Z,29.60
2023-12-10T08:28:06.467Z,28.50
2023-12-10T08:29:06.341Z,27.50
2023-12-10T08:30:06.330Z,26.90
2023-12-10T08:31:06.312Z,28.00
2023-12-10T08:32:06.301Z,27.50
2023-12-10T08:33:06.349Z,27.10
2023-12-10T08:34:06.344Z,23.90
2023-12-10T08:35:06.318Z,24.70
2023-12-10T08:36:06.256Z,22.40
2023-12-10T08:37:06.225Z,22.20
2023-12-10T08:38:06.234Z,23.10
2023-12-10T08:39:06.203Z,24.40
2023-12-10T08:40:06.235Z,21.40
2023-12-10T08:41:06.214Z,22.20
2023-12-10T08:42:06.174Z,27.20
2023-12-10T08:43:06.197Z,25.70
2023-12-10T08:44:06.171Z,22.50
2023-12-10T08:45:06.177Z,27.20
2023-12-10T08:46:06.213Z,24.60
2023-12-10T08:47:06.093Z,29.10
2023-12-10T08:48:06.134Z,24.60
2023-12-10T08:49:06.317Z,25.60
2023-12-10T08:50:06.085Z,28.00
2023-12-10T08:51:06.050Z,26.30
2023-12-10T08:52:06.061Z,27.10
2023-12-10T08:53:06.074Z,27.40
2023-12-10T08:54:06.046Z,25.30
2023-12-10T08:55:06.123Z,24.00
2023-12-10T08:56:06.007Z,24.20
2023-12-10T08:57:05.983Z,26.50
2023-12-10T08:58:05.959Z,24.30
2023-12-10T08:59:05.976Z,23.90
2023-12-10T09:00:06.047Z,22.40
2023-12-10T09:01:06.033Z,22.30
2023-12-10T09:02:05.922Z,22.90
2023-12-10T09:03:05.979Z,21.60
2023-12-10T09:04:06.067Z,22.30
2023-12-10T09:05:06.011Z,22.50
2023-12-10T09:06:05.871Z,22.00
2023-12-10T09:07:05.877Z,21.30
2023-12-10T09:08:05.834Z,20.90
2023-12-10T09:09:05.811Z,22.20
2023-12-10T09:10:11.537Z,22.40
2023-12-10T09:11:05.942Z,21.00
2023-12-10T09:12:05.819Z,23.10
2023-12-10T09:13:05.881Z,22.60
2023-12-10T09:14:05.804Z,22.40
2023-12-10T09:15:05.794Z,29.30
2023-12-10T09:16:05.754Z,27.10
2023-12-10T09:17:05.722Z,240.30
2023-12-10T09:18:05.847Z,41.40
2023-12-10T09:19:05.928Z,39.10
2023-12-10T09:20:05.677Z,34.50
2023-12-10T09:21:05.709Z,33.50
2023-12-10T09:22:05.655Z,33.80
2023-12-10T09:23:05.656Z,34.00
2023-12-10T09:24:05.653Z,32.20
2023-12-10T09:25:05.669Z,34.90
2023-12-10T09:26:05.601Z,30.60
2023-12-10T09:27:05.619Z,30.00
2023-12-10T09:28:07.774Z,33.10
2023-12-10T09:29:05.553Z,30.80
2023-12-10T09:30:05.584Z,29.30
2023-12-10T09:31:05.545Z,31.90
2023-12-10T09:32:05.585Z,31.60
2023-12-10T09:33:05.544Z,31.40
2023-12-10T09:34:05.557Z,28.40
2023-12-10T09:35:05.607Z,31.50
2023-12-10T09:36:05.469Z,33.60
2023-12-10T09:37:05.461Z,28.20
2023-12-10T09:38:05.453Z,32.70
2023-12-10T09:39:05.509Z,31.30
2023-12-10T09:40:05.505Z,34.20
2023-12-10T09:41:05.457Z,32.40
2023-12-10T09:42:05.394Z,30.20
2023-12-10T09:43:05.424Z,34.40
2023-12-10T09:44:05.392Z,32.40
2023-12-10T09:45:05.364Z,34.10
2023-12-10T09:46:05.393Z,32.10
2023-12-10T09:47:05.327Z,33.60
2023-12-10T09:48:05.466Z,32.20
2023-12-10T09:49:05.567Z,35.60
2023-12-10T09:50:05.289Z,33.00
2023-12-10T09:51:05.282Z,32.90
2023-12-10T09:52:05.342Z,34.50
2023-12-10T09:53:05.258Z,32.30
2023-12-10T09:54:05.226Z,32.40
2023-12-10T09:55:05.390Z,28.50
2023-12-10T09:56:05.211Z,31.50
2023-12-10T09:57:05.222Z,30.90
2023-12-10T09:58:05.244Z,28.80
2023-12-10T09:59:05.173Z,26.40
2023-12-10T10:00:05.141Z,27.40
2023-12-10T10:01:05.213Z,26.10
2023-12-10T10:02:05.131Z,23.40
2023-12-10T10:03:05.199Z,22.30
2023-12-10T10:04:05.380Z,25.50
2023-12-10T10:05:05.146Z,22.40
2023-12-10T10:06:05.081Z,22.70
2023-12-10T10:07:05.112Z,19.40
2023-12-10T10:08:05.042Z,16.00
2023-12-10T10:09:05.035Z,8.00
2023-12-10T10:10:05.078Z,4.10
2023-12-10T10:11:05.020Z,2.60
2023-12-10T10:12:04.990Z,2.00
2023-12-10T10:13:05.275Z,1.80
2023-12-10T10:14:04.956Z,1.50
2023-12-10T10:15:04.961Z,1.50
2023-12-10T10:16:04.994Z,1.70
2023-12-10T10:17:04.935Z,1.30
2023-12-10T10:18:05.073Z,1.90
2023-12-10T10:19:05.678Z,1.90
2023-12-10T10:20:04.934Z,1.40
2023-12-10T10:21:04.911Z,1.60
2023-12-10T10:22:04.874Z,1.80
2023-12-10T10:23:04.881Z,2.10
2023-12-10T10:24:04.830Z,1.50
2023-12-10T10:25:05.088Z,2.30
2023-12-10T10:26:04.826Z,1.90
2023-12-10T10:27:04.823Z,2.10
2023-12-10T10:28:04.926Z,1.90
2023-12-10T10:29:04.791Z,1.90
2023-12-10T10:30:04.991Z,1.80
2023-12-10T10:31:04.845Z,1.60
2023-12-10T10:32:04.739Z,1.70
2023-12-10T10:33:04.829Z,2.00
2023-12-10T10:34:04.749Z,2.10
2023-12-10T10:35:04.700Z,1.90
2023-12-10T10:36:04.687Z,2.20
2023-12-10T10:37:04.750Z,2.20
2023-12-10T10:38:04.665Z,2.20
2023-12-10T10:39:04.692Z,2.60
2023-12-10T10:40:04.813Z,2.30
2023-12-10T10:41:04.648Z,1.90
2023-12-10T10:42:04.602Z,1.20
2023-12-10T10:43:04.653Z,1.40
2023-12-10T10:44:04.620Z,1.30
2023-12-10T10:45:04.608Z,1.70
2023-12-10T10:46:05.606Z,2.80
2023-12-10T10:47:04.550Z,2.60
2023-12-10T10:48:04.838Z,3.00
2023-12-10T10:49:04.652Z,2.90
2023-12-10T10:50:20.963Z,3.60
2023-12-10T10:51:04.524Z,3.00
2023-12-10T10:52:04.494Z,1.80
2023-12-10T10:53:04.486Z,1.50
2023-12-10T10:54:04.460Z,1.80
2023-12-10T10:55:04.529Z,1.90
2023-12-10T10:56:04.495Z,1.70
2023-12-10T10:57:04.503Z,1.10
2023-12-10T10:58:04.530Z,1.00
2023-12-10T10:59:04.412Z,0.80
2023-12-10T11:00:06.058Z,0.70
2023-12-10T11:01:04.435Z,0.80
2023-12-10T11:02:04.364Z,1.00
2023-12-10T11:03:04.336Z,0.90
2023-12-10T11:04:04.526Z,0.90
2023-12-10T11:05:04.328Z,0.50
2023-12-10T11:06:06.657Z,1.10
2023-12-10T11:07:04.443Z,0.80
2023-12-10T11:08:04.300Z,0.90
2023-12-10T11:09:04.289Z,0.80
2023-12-10T11:10:04.263Z,0.50
2023-12-10T11:11:04.231Z,1.80
2023-12-10T11:12:04.241Z,1.10
2023-12-10T11:13:04.888Z,1.20
2023-12-10T11:14:04.214Z,0.60
2023-12-10T11:15:04.208Z,0.90
2023-12-10T11:16:04.212Z,1.20
2023-12-10T11:17:04.161Z,0.90
2023-12-10T11:18:04.400Z,1.10
2023-12-10T11:19:04.327Z,1.50
2023-12-10T11:20:04.123Z,1.30
2023-12-10T11:21:04.092Z,1.80
2023-12-10T11:22:04.177Z,1.60
2023-12-10T11:23:04.073Z,2.00
2023-12-10T11:24:04.052Z,1.50
2023-12-10T11:25:04.058Z,1.40
2023-12-10T11:26:04.017Z,1.70
2023-12-10T11:27:04.057Z,2.00
2023-12-10T11:28:04.060Z,3.30
2023-12-10T11:29:04.000Z,1.80
2023-12-10T11:30:03.961Z,1.50
2023-12-10T11:31:04.052Z,1.70
2023-12-10T11:32:03.972Z,1.50
2023-12-10T11:33:04.721Z,1.60
2023-12-10T11:34:03.941Z,2.90
2023-12-10T11:35:03.967Z,1.40
2023-12-10T11:36:32.814Z,1.80
2023-12-10T11:37:03.975Z,2.40
2023-12-10T11:38:03.965Z,2.20
2023-12-10T11:39:03.950Z,1.40
2023-12-10T11:40:04.070Z,2.20
2023-12-10T11:41:05.448Z,1.60
2023-12-10T11:42:06.772Z,2.00
2023-12-10T11:43:05.022Z,1.60
2023-12-10T11:44:04.031Z,1.90
2023-12-10T11:45:03.797Z,2.00
2023-12-10T11:46:03.763Z,1.90
2023-12-10T11:47:03.755Z,1.60
2023-12-10T11:48:03.859Z,1.80
2023-12-10T11:49:03.816Z,1.80
2023-12-10T11:50:03.711Z,1.80
2023-12-10T11:51:03.748Z,2.10
2023-12-10T11:52:05.412Z,1.90
2023-12-10T11:53:03.733Z,1.60
2023-12-10T11:54:03.652Z,1.70
2023-12-10T11:55:03.736Z,2.00
2023-12-10T11:56:03.654Z,1.40
2023-12-10T11:57:03.669Z,1.70
2023-12-10T11:58:03.658Z,1.60
2023-12-10T11:59:03.593Z,1.40
2023-12-10T12:00:03.601Z,1.60
2023-12-10T12:01:03.748Z,2.10
2023-12-10T12:02:03.580Z,1.60
2023-12-10T12:03:03.586Z,1.80
2023-12-10T12:04:04.037Z,1.60
2023-12-10T12:05:03.847Z,1.50
2023-12-10T12:06:03.944Z,2.00
2023-12-10T12:07:04.630Z,1.50
2023-12-10T12:08:04.054Z,1.30
2023-12-10T12:09:03.875Z,1.90
2023-12-10T12:10:03.820Z,1.90
2023-12-10T12:11:03.955Z,1.60
2023-12-10T12:12:04.002Z,1.50
2023-12-10T12:13:03.493Z,1.50
2023-12-10T12:14:03.413Z,1.80
2023-12-10T12:15:03.460Z,1.30
2023-12-10T12:16:03.381Z,2.00
2023-12-10T12:17:03.352Z,1.60
2023-12-10T12:18:03.700Z,1.50
2023-12-10T12:19:03.390Z,1.50
2023-12-10T12:20:03.345Z,1.40
2023-12-10T12:21:03.365Z,1.20
2023-12-10T12:22:03.402Z,1.70
2023-12-10T12:23:03.366Z,1.90
2023-12-10T12:24:03.313Z,1.30
2023-12-10T12:25:03.347Z,1.30
2023-12-10T12:26:03.239Z,1.30
2023-12-10T12:27:03.263Z,1.40
2023-12-10T12:28:03.339Z,1.60
2023-12-10T12:29:03.251Z,1.50
2023-12-10T12:30:03.266Z,1.50
2023-12-10T12:31:03.345Z,1.30
2023-12-10T12:32:19.236Z,1.60
2023-12-10T12:33:03.206Z,1.00
2023-12-10T12:34:03.299Z,1.50
2023-12-10T12:35:03.176Z,1.70
2023-12-10T12:36:03.129Z,1.60
2023-12-10T12:37:03.202Z,1.30
2023-12-10T12:38:03.063Z,1.20
2023-12-10T12:39:03.123Z,1.70
2023-12-10T12:40:04.825Z,1.90
2023-12-10T12:41:03.050Z,1.90
2023-12-10T12:42:03.028Z,1.30
2023-12-10T12:43:03.114Z,1.60
2023-12-10T12:44:03.070Z,2.00
2023-12-10T12:45:03.004Z,1.70
2023-12-10T12:46:03.053Z,1.50
2023-12-10T12:47:02.990Z,2.20
2023-12-10T12:48:02.986Z,1.60
2023-12-10T12:49:03.069Z,1.50
2023-12-10T12:50:03.050Z,1.80
2023-12-10T12:51:02.920Z,2.30
2023-12-10T12:52:02.937Z,1.60
2023-12-10T12:53:02.919Z,1.50
2023-12-10T12:54:12.238Z,1.40
2023-12-10T12:55:02.966Z,1.50
2023-12-10T12:56:02.854Z,1.60
2023-12-10T12:57:02.839Z,1.60
2023-12-10T12:58:02.905Z,1.50
2023-12-10T12:59:02.840Z,1.00